METAR Data
IDs: Format: Raw Decoded Include TAF

Data at: 0516 UTC 24 May 2022

KATW 240515Z AUTO 00000KT 10SM CLR 06/01 A3027 RMK AO2

KATW 232320Z 2400/2424 11007KT P6SM BKN050 BKN250
  FM240200 VRB03KT P6SM BKN200
  FM241500 10007KT P6SM SCT060